KPHX/PHX METAR and TAF weather

Enter ICAO airport designator
Station Type Date Time Source
KPHX METAR 2019/04/25 07:51 UTC NOAA

KPHX 250751Z 09005KT 10SM CLR 24/04 A2985 RMK AO2 SLP090 T02390039


Station Type Date Time Source
KPHX Decoded METAR 2019/04/25 07:51 UTC NOAA

Phoenix, Phoenix Sky Harbor International Airport, AZ, United States (KPHX) 33-26-03N 112-03-04W 336M
Apr 25, 2019 - 03:51 AM EDT / 2019.04.25 0751 UTC
Wind: from the E (090 degrees) at 6 MPH (5 KT):0
Visibility: 10 mile(s):0
Sky conditions: clear
Temperature: 75.0 F (23.9 C)
Dew Point: 39.0 F (3.9 C)
Relative Humidity: 27%
Pressure (altimeter): 29.85 in. Hg (1010 hPa)
ob: KPHX 250751Z 09005KT 10SM CLR 24/04 A2985 RMK AO2 SLP090 T02390039
cycle: 8

Station Type Date Time Source
KPHX TAF 2019/04/25 06:22 UTC NOAA

TAF KPHX 250520Z 2506/2612 26008KT P6SM SKC
FM251100 11005KT P6SM SKC
FM252100 27009KT P6SM SKC
FM261000 10005KT P6SM SKC

Example: see airport list